• Join FlightAware (Why Join?)
  • Login
  • US Flag 
05:37AM EDT


 

Airport Tracker/Info


-or-


 

Live Flight TrackerFlight Track Log ✈ N75801 ✈ 07-Jul-2013 ✈ KUCP - 1G0

Flight Track Log - Related Links

Times and Time Zones

All times are in EDT time to prevent confusion due to time zone crossing. See the N75801 flight status page for this flight to view local times or setup timezone preferences in your user account.

Time Position Orientation Groundspeed Altitude Reporting Facility
EDT Latitude Longitude Course Direction KTS MPH feet Rate Location/Type
03:54PM 41.0361 -80.6083 294° West  Level FlightAware Approximate
03:55PM 41.0469 -80.6407 294° West  Level FlightAware Approximate
03:56PM 41.0515 -80.6753 275° West  Level FlightAware Approximate
03:57PM 41.0536 -80.7106 275° West  Level FlightAware Approximate
03:58PM 41.0557 -80.7460 275° West  Level FlightAware Approximate
03:59PM 41.0578 -80.7813 274° West  Level FlightAware Approximate
04:00PM 41.0599 -80.8167 274° West  Level FlightAware Approximate
04:01PM 41.0620 -80.8520 274° West  Level FlightAware Approximate
04:02PM 41.0640 -80.8874 274° West  Level FlightAware Approximate
04:03PM 41.0661 -80.9227 274° West  Level FlightAware Approximate
04:04PM 41.0698 -80.9578 280° West  Level FlightAware Approximate
04:05PM 41.0742 -80.9928 279° West  Level FlightAware Approximate
04:06PM 41.0785 -81.0278 279° West  Level FlightAware Approximate
04:06PM 41.0878 -81.0322 291° West 94 108 6,000  Level Cleveland Center
04:07PM 41.0829 -81.0628 279° West  Level FlightAware Approximate
04:07PM 41.0917 -81.0708 278° West 98 113 5,900  Level Cleveland Center
04:08PM 41.0873 -81.0978 279° West  Level FlightAware Approximate
04:08PM 41.0958 -81.1150 277° West 91 105 5,900  Level Cleveland Center
04:09PM 41.0917 -81.1328 279° West  Level FlightAware Approximate
04:09PM 41.0997 -81.1533 278° West 93 107 5,900  Level Cleveland Center
04:10PM 41.0960 -81.1678 279° West  Level FlightAware Approximate
04:10PM 41.1036 -81.1867 279° West 96 110 5,900  Level Cleveland Center
04:11PM 41.1008 -81.2027 291° West  Level FlightAware Approximate
04:11PM 41.1097 -81.2225 283° West 93 107 5,900  Level Cleveland Center
04:12PM 41.1158 -81.2472 288° West 95 109 5,900  Level Cleveland Center
04:14PM 41.1281 -81.2889 291° West 95 109 6,000  Climbing Cleveland Center
04:15PM 41.1406 -81.3219 297° West 94 108 6,000  Level Cleveland Center
04:15PM 41.1464 -81.3469 287° West 98 113 6,000  Level Cleveland Center
04:16PM 41.1547 -81.3800 289° West 96 110 6,000 -60 Level Cleveland Center
04:17PM 41.1628 -81.4133 288° West 99 114 5,900 -120 Descending Cleveland Center
04:18PM 41.1731 -81.4439 294° West 100 115 5,800  Descending Cleveland Center
04:19PM 41.1811 -81.4769 288° West 92 106 6,000  Climbing Cleveland Center
04:20PM 41.1911 -81.5075 294° West 91 105 5,900  Descending Cleveland Center
04:21PM 41.1992 -81.5489 285° West 99 114 6,000  Climbing Cleveland Center
04:22PM 41.2094 -81.5822 292° West 101 116 5,900  Descending Cleveland Center
04:23PM 41.2153 -81.6156 283° West 98 113 6,000  Climbing Cleveland Center
04:24PM 41.2233 -81.6458 289° West 98 113 6,000  Level Cleveland Center
04:26PM 41.2436 -81.7181 290° West 100 115 6,000  Level Cleveland Center
04:27PM 41.2536 -81.7486 294° West 95 109 6,000  Level Cleveland Center
04:28PM 41.2617 -81.7847 287° West 100 115 6,000  Level Cleveland Center
04:29PM 41.2694 -81.8181 287° West 98 113 6,000  Level Cleveland Center
04:30PM 41.2817 -81.8542 294° West 96 110 6,000  Level Cleveland Center
04:31PM 41.2897 -81.8875 288° West 98 113 6,000 -60 Level Cleveland Center
04:32PM 41.3017 -81.9292 291° West 107 123 5,900  Descending Cleveland Center
04:33PM 41.3075 -81.9569 286° West 100 115 6,000  Climbing Cleveland Center
04:34PM 41.3175 -81.9931 290° West 102 117 5,900  Descending Cleveland Center
04:35PM 41.3233 -82.0292 282° West 101 116 6,000  Climbing Cleveland Center
04:36PM 41.3353 -82.0681 292° West 97 112 6,000 -60 Level Cleveland Center
04:37PM 41.3411 -82.1042 282° West 104 120 5,900 -60 Descending Cleveland Center
04:38PM 41.3511 -82.1403 290° West 104 120 5,900  Level Cleveland Center
04:39PM 41.3567 -82.1819 280° West 96 110 6,000  Climbing Cleveland Center
04:40PM 41.3561 -82.2181 269° West 104 120 5,900 -60 Descending Cleveland Center
04:41PM 41.3597 -82.2569 277° West 101 116 5,900  Level Cleveland Center
04:42PM 41.3594 -82.2928 269° West 100 115 5,900  Level Cleveland Center
04:43PM 41.3608 -82.3261 273° West 102 117 5,900 -60 Level Cleveland Center
04:44PM 41.3622 -82.3703 272° West 103 119 5,800  Descending Cleveland Center
04:45PM 41.3639 -82.4064 274° West 101 116 6,000 60 Climbing Cleveland Center
04:47PM 41.3672 -82.4481 276° West 101 116 6,000 -60 Level Cleveland Center
04:48PM 41.3689 -82.4867 273° West 104 120 5,900 -120 Descending Cleveland Center
04:49PM 41.3722 -82.5283 276° West 106 122 5,800  Descending Cleveland Center
04:50PM 41.3694 -82.5669 265° West 103 119 5,900 60 Climbing Cleveland Center
04:52PM 41.4066 -82.6152 316° Northwest  Level FlightAware Approximate
04:59PM 41.4333 -82.8552 270° West  Level FlightAware Approximate
05:00PM 41.4333 -82.8916 270° West  Level FlightAware Approximate
05:01PM 41.4333 -82.9280 270° West  Level FlightAware Approximate
05:02PM 41.4333 -82.9645 270° West  Level FlightAware Approximate
05:03PM 41.4334 -83.0009 270° West  Level FlightAware Approximate
05:04PM 41.4334 -83.0373 270° West  Level FlightAware Approximate
05:05PM 41.4334 -83.0738 270° West  Level FlightAware Approximate
05:06PM 41.4334 -83.1102 270° West  Level FlightAware Approximate
05:07PM 41.4334 -83.1466 270° West  Level FlightAware Approximate
05:08PM 41.4334 -83.1831 270° West  Level FlightAware Approximate
05:09PM 41.4334 -83.2195 270° West  Level FlightAware Approximate
05:10PM 41.4334 -83.2559 270° West  Level FlightAware Approximate
05:11PM 41.4333 -83.2923 270° West  Level FlightAware Approximate
05:12PM 41.4333 -83.3288 270° West  Level FlightAware Approximate
05:13PM 41.4333 -83.3652 270° West  Level FlightAware Approximate
05:14PM 41.4333 -83.4016 270° West  Level FlightAware Approximate
05:15PM 41.4321 -83.4377 249° West  Level FlightAware Approximate
05:16PM 41.4224 -83.4718 249° West  Level FlightAware Approximate
05:17PM 41.4127 -83.5058 249° West  Level FlightAware Approximate
05:18PM 41.4029 -83.5398 249° West  Level FlightAware Approximate
05:19PM 41.3940 -83.5742 252° West  Level FlightAware Approximate
05:20PM 41.3853 -83.6087 252° West  Level FlightAware Approximate
05:21PM 41.3833 -83.6167 252° West  Level FlightAware Approximate
05:22PM 41.3910 -83.6301 252° West  Level Estimated
05:23PM 41.3910 -83.6301 252° West  Level Estimated
05:24PM 41.3910 -83.6301 252° West  Level Estimated
05:25PM 41.3910 -83.6301 252° West  Level Estimated
05:26PM 41.3910 -83.6301 252° West  Level Estimated
05:27PM 41.3910 -83.6301 252° West  Level Estimated
05:28PM 41.3910 -83.6301 252° West  Level Estimated
05:29PM 41.3910 -83.6301 252° West  Level Estimated
05:30PM 41.3910 -83.6301 252° West  Level Estimated
05:31PM 41.3910 -83.6301 252° West  Level Estimated
05:32PM 41.3910 -83.6301 252° West  Level Estimated
05:33PM 41.3910 -83.6301 252° West  Level Estimated